sensor_id;sensor_type;location;lat;lon;timestamp;P1;durP1;ratioP1;P2;durP2;ratioP2
65187;SDS011;51775;51.148;6.950;2022-12-18T00:02:06;3.65;;;2.13;;
65187;SDS011;51775;51.148;6.950;2022-12-18T00:04:31;4.70;;;2.20;;
65187;SDS011;51775;51.148;6.950;2022-12-18T00:06:57;3.03;;;2.00;;
65187;SDS011;51775;51.148;6.950;2022-12-18T00:09:22;3.15;;;2.00;;
65187;SDS011;51775;51.148;6.950;2022-12-18T00:11:49;3.40;;;2.10;;
65187;SDS011;51775;51.148;6.950;2022-12-18T00:14:14;2.90;;;2.05;;
65187;SDS011;51775;51.148;6.950;2022-12-18T00:16:39;3.53;;;2.08;;
65187;SDS011;51775;51.148;6.950;2022-12-18T00:19:08;2.88;;;1.77;;
65187;SDS011;51775;51.148;6.950;2022-12-18T00:21:34;2.78;;;1.90;;
65187;SDS011;51775;51.148;6.950;2022-12-18T00:24:00;2.75;;;1.88;;
65187;SDS011;51775;51.148;6.950;2022-12-18T00:26:27;3.10;;;1.90;;
65187;SDS011;51775;51.148;6.950;2022-12-18T00:28:57;3.30;;;2.08;;
65187;SDS011;51775;51.148;6.950;2022-12-18T00:31:23;3.35;;;2.10;;
65187;SDS011;51775;51.148;6.950;2022-12-18T00:33:49;3.08;;;1.85;;
65187;SDS011;51775;51.148;6.950;2022-12-18T00:36:16;2.90;;;1.80;;
65187;SDS011;51775;51.148;6.950;2022-12-18T00:38:43;2.60;;;1.88;;
65187;SDS011;51775;51.148;6.950;2022-12-18T00:41:10;2.78;;;1.75;;
65187;SDS011;51775;51.148;6.950;2022-12-18T00:43:37;2.92;;;1.90;;
65187;SDS011;51775;51.148;6.950;2022-12-18T00:46:03;3.25;;;1.85;;
65187;SDS011;51775;51.148;6.950;2022-12-18T00:48:29;3.60;;;1.92;;
65187;SDS011;51775;51.148;6.950;2022-12-18T00:50:54;2.90;;;1.83;;
65187;SDS011;51775;51.148;6.950;2022-12-18T00:53:20;2.95;;;1.80;;
65187;SDS011;51775;51.148;6.950;2022-12-18T00:55:45;2.90;;;1.70;;
65187;SDS011;51775;51.148;6.950;2022-12-18T00:58:11;3.30;;;2.00;;
65187;SDS011;51775;51.148;6.950;2022-12-18T01:00:37;2.60;;;1.80;;
65187;SDS011;51775;51.148;6.950;2022-12-18T01:03:03;2.60;;;1.60;;
65187;SDS011;51775;51.148;6.950;2022-12-18T01:05:29;3.20;;;2.05;;
65187;SDS011;51775;51.148;6.950;2022-12-18T01:07:55;2.92;;;1.70;;
65187;SDS011;51775;51.148;6.950;2022-12-18T01:10:21;3.45;;;2.00;;
65187;SDS011;51775;51.148;6.950;2022-12-18T01:12:46;3.00;;;1.80;;
65187;SDS011;51775;51.148;6.950;2022-12-18T01:15:12;3.03;;;1.80;;
65187;SDS011;51775;51.148;6.950;2022-12-18T01:17:38;3.13;;;1.80;;
65187;SDS011;51775;51.148;6.950;2022-12-18T01:20:03;2.97;;;1.80;;
65187;SDS011;51775;51.148;6.950;2022-12-18T01:22:30;3.15;;;1.80;;
65187;SDS011;51775;51.148;6.950;2022-12-18T01:24:55;3.38;;;2.05;;
65187;SDS011;51775;51.148;6.950;2022-12-18T01:27:20;3.78;;;1.90;;
65187;SDS011;51775;51.148;6.950;2022-12-18T01:29:45;2.90;;;1.80;;
65187;SDS011;51775;51.148;6.950;2022-12-18T01:32:11;2.78;;;1.75;;
65187;SDS011;51775;51.148;6.950;2022-12-18T01:34:36;2.60;;;1.67;;
65187;SDS011;51775;51.148;6.950;2022-12-18T01:37:05;2.78;;;1.80;;
65187;SDS011;51775;51.148;6.950;2022-12-18T01:39:31;2.97;;;1.83;;
65187;SDS011;51775;51.148;6.950;2022-12-18T01:41:57;3.17;;;1.80;;
65187;SDS011;51775;51.148;6.950;2022-12-18T01:47:43;2.70;;;1.70;;
65187;SDS011;51775;51.148;6.950;2022-12-18T01:50:16;3.33;;;1.95;;
65187;SDS011;51775;51.148;6.950;2022-12-18T01:52:45;2.92;;;1.70;;
65187;SDS011;51775;51.148;6.950;2022-12-18T01:55:14;3.08;;;2.00;;
65187;SDS011;51775;51.148;6.950;2022-12-18T01:57:43;2.65;;;1.70;;
65187;SDS011;51775;51.148;6.950;2022-12-18T02:00:10;2.63;;;1.63;;
65187;SDS011;51775;51.148;6.950;2022-12-18T02:02:41;2.70;;;1.70;;
65187;SDS011;51775;51.148;6.950;2022-12-18T02:05:08;3.20;;;1.80;;
65187;SDS011;51775;51.148;6.950;2022-12-18T02:12:48;3.10;;;1.80;;
65187;SDS011;51775;51.148;6.950;2022-12-18T02:15:24;2.90;;;1.80;;
65187;SDS011;51775;51.148;6.950;2022-12-18T02:17:58;2.53;;;1.70;;
65187;SDS011;51775;51.148;6.950;2022-12-18T02:20:58;3.03;;;1.67;;
65187;SDS011;51775;51.148;6.950;2022-12-18T02:31:21;3.10;;;1.85;;
65187;SDS011;51775;51.148;6.950;2022-12-18T02:34:00;2.45;;;1.55;;
65187;SDS011;51775;51.148;6.950;2022-12-18T02:36:28;2.90;;;1.63;;
65187;SDS011;51775;51.148;6.950;2022-12-18T02:38:54;2.72;;;1.65;;
65187;SDS011;51775;51.148;6.950;2022-12-18T02:41:24;2.45;;;1.70;;
65187;SDS011;51775;51.148;6.950;2022-12-18T02:43:55;2.95;;;1.80;;
65187;SDS011;51775;51.148;6.950;2022-12-18T02:46:33;2.80;;;1.70;;
65187;SDS011;51775;51.148;6.950;2022-12-18T02:49:06;2.78;;;1.60;;
65187;SDS011;51775;51.148;6.950;2022-12-18T02:51:51;2.80;;;1.50;;
65187;SDS011;51775;51.148;6.950;2022-12-18T02:54:26;3.33;;;1.60;;
65187;SDS011;51775;51.148;6.950;2022-12-18T02:57:13;2.45;;;1.70;;
65187;SDS011;51775;51.148;6.950;2022-12-18T02:59:46;2.70;;;1.70;;
65187;SDS011;51775;51.148;6.950;2022-12-18T03:02:23;2.90;;;1.77;;
65187;SDS011;51775;51.148;6.950;2022-12-18T03:05:10;2.15;;;1.40;;
65187;SDS011;51775;51.148;6.950;2022-12-18T03:07:42;2.95;;;1.70;;
65187;SDS011;51775;51.148;6.950;2022-12-18T03:10:14;2.92;;;1.88;;
65187;SDS011;51775;51.148;6.950;2022-12-18T03:15:50;2.65;;;1.52;;
65187;SDS011;51775;51.148;6.950;2022-12-18T03:18:21;2.72;;;1.63;;
65187;SDS011;51775;51.148;6.950;2022-12-18T03:20:50;2.65;;;1.60;;
65187;SDS011;51775;51.148;6.950;2022-12-18T03:23:21;2.67;;;1.50;;
65187;SDS011;51775;51.148;6.950;2022-12-18T03:25:51;2.50;;;1.50;;
65187;SDS011;51775;51.148;6.950;2022-12-18T03:28:21;2.70;;;1.60;;
65187;SDS011;51775;51.148;6.950;2022-12-18T03:30:52;2.40;;;1.50;;
65187;SDS011;51775;51.148;6.950;2022-12-18T03:33:29;2.47;;;1.60;;
65187;SDS011;51775;51.148;6.950;2022-12-18T03:36:02;2.35;;;1.45;;
65187;SDS011;51775;51.148;6.950;2022-12-18T03:38:28;2.35;;;1.50;;
65187;SDS011;51775;51.148;6.950;2022-12-18T03:41:06;2.20;;;1.40;;
65187;SDS011;51775;51.148;6.950;2022-12-18T03:43:58;3.78;;;1.60;;
65187;SDS011;51775;51.148;6.950;2022-12-18T03:49:08;2.53;;;1.50;;
65187;SDS011;51775;51.148;6.950;2022-12-18T03:54:07;2.53;;;1.60;;
65187;SDS011;51775;51.148;6.950;2022-12-18T03:56:36;2.25;;;1.40;;
65187;SDS011;51775;51.148;6.950;2022-12-18T03:59:06;2.08;;;1.40;;
65187;SDS011;51775;51.148;6.950;2022-12-18T04:01:35;2.22;;;1.30;;
65187;SDS011;51775;51.148;6.950;2022-12-18T04:04:04;2.30;;;1.50;;
65187;SDS011;51775;51.148;6.950;2022-12-18T04:06:30;2.22;;;1.50;;
65187;SDS011;51775;51.148;6.950;2022-12-18T04:08:57;2.05;;;1.30;;
65187;SDS011;51775;51.148;6.950;2022-12-18T04:11:23;2.17;;;1.40;;
65187;SDS011;51775;51.148;6.950;2022-12-18T04:13:48;2.28;;;1.30;;
65187;SDS011;51775;51.148;6.950;2022-12-18T04:16:13;2.55;;;1.40;;
65187;SDS011;51775;51.148;6.950;2022-12-18T04:18:39;2.45;;;1.50;;
65187;SDS011;51775;51.148;6.950;2022-12-18T04:21:04;2.80;;;1.60;;
65187;SDS011;51775;51.148;6.950;2022-12-18T04:23:29;2.20;;;1.30;;
65187;SDS011;51775;51.148;6.950;2022-12-18T04:25:55;2.20;;;1.40;;
65187;SDS011;51775;51.148;6.950;2022-12-18T04:28:20;2.35;;;1.42;;
65187;SDS011;51775;51.148;6.950;2022-12-18T04:30:49;3.00;;;1.58;;
65187;SDS011;51775;51.148;6.950;2022-12-18T04:33:17;1.67;;;1.20;;
65187;SDS011;51775;51.148;6.950;2022-12-18T04:35:43;2.10;;;1.40;;
65187;SDS011;51775;51.148;6.950;2022-12-18T04:38:08;2.28;;;1.38;;
65187;SDS011;51775;51.148;6.950;2022-12-18T04:40:34;2.30;;;1.50;;
65187;SDS011;51775;51.148;6.950;2022-12-18T04:43:00;2.10;;;1.30;;
65187;SDS011;51775;51.148;6.950;2022-12-18T04:45:26;2.30;;;1.40;;
65187;SDS011;51775;51.148;6.950;2022-12-18T04:47:51;2.45;;;1.40;;
65187;SDS011;51775;51.148;6.950;2022-12-18T04:50:16;2.45;;;1.50;;
65187;SDS011;51775;51.148;6.950;2022-12-18T04:52:42;1.98;;;1.30;;
65187;SDS011;51775;51.148;6.950;2022-12-18T04:55:07;2.20;;;1.35;;
65187;SDS011;51775;51.148;6.950;2022-12-18T04:57:33;1.92;;;1.33;;
65187;SDS011;51775;51.148;6.950;2022-12-18T04:59:58;2.13;;;1.38;;
65187;SDS011;51775;51.148;6.950;2022-12-18T05:02:23;1.92;;;1.30;;
65187;SDS011;51775;51.148;6.950;2022-12-18T05:04:49;2.33;;;1.40;;
65187;SDS011;51775;51.148;6.950;2022-12-18T05:07:14;2.30;;;1.33;;
65187;SDS011;51775;51.148;6.950;2022-12-18T05:09:39;1.98;;;1.10;;
65187;SDS011;51775;51.148;6.950;2022-12-18T05:12:05;2.15;;;1.30;;
65187;SDS011;51775;51.148;6.950;2022-12-18T05:14:30;1.95;;;1.20;;
65187;SDS011;51775;51.148;6.950;2022-12-18T05:16:55;1.98;;;1.30;;
65187;SDS011;51775;51.148;6.950;2022-12-18T05:19:21;1.80;;;1.30;;
65187;SDS011;51775;51.148;6.950;2022-12-18T05:21:46;2.17;;;1.30;;
65187;SDS011;51775;51.148;6.950;2022-12-18T05:24:11;2.38;;;1.40;;
65187;SDS011;51775;51.148;6.950;2022-12-18T05:26:37;2.45;;;1.58;;
65187;SDS011;51775;51.148;6.950;2022-12-18T05:29:02;2.55;;;1.40;;
65187;SDS011;51775;51.148;6.950;2022-12-18T05:31:27;2.08;;;1.30;;
65187;SDS011;51775;51.148;6.950;2022-12-18T05:33:53;2.22;;;1.30;;
65187;SDS011;51775;51.148;6.950;2022-12-18T05:36:18;2.33;;;1.45;;
65187;SDS011;51775;51.148;6.950;2022-12-18T05:38:43;2.67;;;1.42;;
65187;SDS011;51775;51.148;6.950;2022-12-18T05:41:08;1.90;;;1.30;;
65187;SDS011;51775;51.148;6.950;2022-12-18T05:43:35;2.47;;;1.50;;
65187;SDS011;51775;51.148;6.950;2022-12-18T05:46:05;2.15;;;1.38;;
65187;SDS011;51775;51.148;6.950;2022-12-18T05:48:31;2.00;;;1.30;;
65187;SDS011;51775;51.148;6.950;2022-12-18T05:51:02;1.95;;;1.20;;
65187;SDS011;51775;51.148;6.950;2022-12-18T05:53:29;2.17;;;1.30;;
65187;SDS011;51775;51.148;6.950;2022-12-18T05:55:54;2.00;;;1.20;;
65187;SDS011;51775;51.148;6.950;2022-12-18T05:58:25;2.30;;;1.30;;
65187;SDS011;51775;51.148;6.950;2022-12-18T06:00:50;2.45;;;1.45;;
65187;SDS011;51775;51.148;6.950;2022-12-18T06:03:15;2.33;;;1.30;;
65187;SDS011;51775;51.148;6.950;2022-12-18T06:05:41;2.00;;;1.20;;
65187;SDS011;51775;51.148;6.950;2022-12-18T06:08:08;2.13;;;1.40;;
65187;SDS011;51775;51.148;6.950;2022-12-18T06:10:33;2.90;;;1.65;;
65187;SDS011;51775;51.148;6.950;2022-12-18T06:12:59;2.40;;;1.40;;
65187;SDS011;51775;51.148;6.950;2022-12-18T06:15:25;2.42;;;1.40;;
65187;SDS011;51775;51.148;6.950;2022-12-18T06:17:50;2.25;;;1.27;;
65187;SDS011;51775;51.148;6.950;2022-12-18T06:20:16;1.90;;;1.20;;
65187;SDS011;51775;51.148;6.950;2022-12-18T06:22:41;2.28;;;1.42;;
65187;SDS011;51775;51.148;6.950;2022-12-18T06:25:06;2.45;;;1.50;;
65187;SDS011;51775;51.148;6.950;2022-12-18T06:27:32;2.05;;;1.27;;
65187;SDS011;51775;51.148;6.950;2022-12-18T06:29:57;2.65;;;1.40;;
65187;SDS011;51775;51.148;6.950;2022-12-18T06:32:23;2.08;;;1.30;;
65187;SDS011;51775;51.148;6.950;2022-12-18T06:34:48;2.53;;;1.40;;
65187;SDS011;51775;51.148;6.950;2022-12-18T06:37:13;2.65;;;1.60;;
65187;SDS011;51775;51.148;6.950;2022-12-18T06:39:38;2.30;;;1.40;;
65187;SDS011;51775;51.148;6.950;2022-12-18T06:42:04;2.40;;;1.40;;
65187;SDS011;51775;51.148;6.950;2022-12-18T06:44:29;2.40;;;1.40;;
65187;SDS011;51775;51.148;6.950;2022-12-18T06:46:54;2.05;;;1.30;;
65187;SDS011;51775;51.148;6.950;2022-12-18T06:49:20;2.28;;;1.35;;
65187;SDS011;51775;51.148;6.950;2022-12-18T06:51:45;2.28;;;1.40;;
65187;SDS011;51775;51.148;6.950;2022-12-18T06:54:11;2.35;;;1.50;;
65187;SDS011;51775;51.148;6.950;2022-12-18T06:56:36;2.70;;;1.40;;
65187;SDS011;51775;51.148;6.950;2022-12-18T06:59:01;2.28;;;1.45;;
65187;SDS011;51775;51.148;6.950;2022-12-18T07:01:26;2.30;;;1.40;;
65187;SDS011;51775;51.148;6.950;2022-12-18T07:03:55;2.10;;;1.27;;
65187;SDS011;51775;51.148;6.950;2022-12-18T07:06:22;2.47;;;1.50;;
65187;SDS011;51775;51.148;6.950;2022-12-18T07:08:49;2.60;;;1.42;;
65187;SDS011;51775;51.148;6.950;2022-12-18T07:11:15;2.08;;;1.20;;
65187;SDS011;51775;51.148;6.950;2022-12-18T07:13:41;2.72;;;1.60;;
65187;SDS011;51775;51.148;6.950;2022-12-18T07:16:07;2.25;;;1.33;;
65187;SDS011;51775;51.148;6.950;2022-12-18T07:18:34;2.38;;;1.38;;
65187;SDS011;51775;51.148;6.950;2022-12-18T07:21:07;2.50;;;1.50;;
65187;SDS011;51775;51.148;6.950;2022-12-18T07:23:35;2.55;;;1.60;;
65187;SDS011;51775;51.148;6.950;2022-12-18T07:26:04;2.08;;;1.27;;
65187;SDS011;51775;51.148;6.950;2022-12-18T07:28:35;2.30;;;1.40;;
65187;SDS011;51775;51.148;6.950;2022-12-18T07:31:09;1.95;;;1.30;;
65187;SDS011;51775;51.148;6.950;2022-12-18T07:33:35;2.53;;;1.30;;
65187;SDS011;51775;51.148;6.950;2022-12-18T07:36:01;1.98;;;1.35;;
65187;SDS011;51775;51.148;6.950;2022-12-18T07:38:29;2.40;;;1.52;;
65187;SDS011;51775;51.148;6.950;2022-12-18T07:40:54;2.47;;;1.38;;
65187;SDS011;51775;51.148;6.950;2022-12-18T07:43:27;2.42;;;1.52;;
65187;SDS011;51775;51.148;6.950;2022-12-18T07:45:53;2.85;;;1.60;;
65187;SDS011;51775;51.148;6.950;2022-12-18T07:48:18;2.75;;;1.58;;
65187;SDS011;51775;51.148;6.950;2022-12-18T07:50:43;7.15;;;1.60;;
65187;SDS011;51775;51.148;6.950;2022-12-18T07:53:09;4.57;;;1.73;;
65187;SDS011;51775;51.148;6.950;2022-12-18T07:55:34;16.48;;;1.80;;
65187;SDS011;51775;51.148;6.950;2022-12-18T07:58:04;2.25;;;1.40;;
65187;SDS011;51775;51.148;6.950;2022-12-18T08:00:30;3.42;;;1.77;;
65187;SDS011;51775;51.148;6.950;2022-12-18T08:02:56;3.60;;;1.63;;
65187;SDS011;51775;51.148;6.950;2022-12-18T08:05:21;3.10;;;1.50;;
65187;SDS011;51775;51.148;6.950;2022-12-18T08:07:46;2.45;;;1.60;;
65187;SDS011;51775;51.148;6.950;2022-12-18T08:10:12;3.85;;;1.60;;
65187;SDS011;51775;51.148;6.950;2022-12-18T08:12:38;2.78;;;1.70;;
65187;SDS011;51775;51.148;6.950;2022-12-18T08:15:03;4.40;;;2.35;;
65187;SDS011;51775;51.148;6.950;2022-12-18T08:17:29;9.25;;;3.72;;
65187;SDS011;51775;51.148;6.950;2022-12-18T08:19:55;7.68;;;3.55;;
65187;SDS011;51775;51.148;6.950;2022-12-18T08:22:20;11.35;;;4.10;;
65187;SDS011;51775;51.148;6.950;2022-12-18T08:24:45;7.15;;;3.53;;
65187;SDS011;51775;51.148;6.950;2022-12-18T08:27:10;8.25;;;3.80;;
65187;SDS011;51775;51.148;6.950;2022-12-18T08:29:36;7.03;;;3.78;;
65187;SDS011;51775;51.148;6.950;2022-12-18T08:32:01;6.30;;;3.28;;
65187;SDS011;51775;51.148;6.950;2022-12-18T08:34:27;6.15;;;3.40;;
65187;SDS011;51775;51.148;6.950;2022-12-18T08:36:52;7.35;;;3.10;;
65187;SDS011;51775;51.148;6.950;2022-12-18T08:39:17;5.32;;;3.28;;
65187;SDS011;51775;51.148;6.950;2022-12-18T08:41:43;7.10;;;3.20;;
65187;SDS011;51775;51.148;6.950;2022-12-18T08:44:08;6.40;;;3.20;;
65187;SDS011;51775;51.148;6.950;2022-12-18T08:46:34;29.75;;;7.38;;
65187;SDS011;51775;51.148;6.950;2022-12-18T08:49:02;29.30;;;6.95;;
65187;SDS011;51775;51.148;6.950;2022-12-18T08:51:27;32.33;;;7.60;;
65187;SDS011;51775;51.148;6.950;2022-12-18T08:53:53;28.58;;;7.30;;
65187;SDS011;51775;51.148;6.950;2022-12-18T08:56:18;28.90;;;7.07;;
65187;SDS011;51775;51.148;6.950;2022-12-18T08:58:43;24.58;;;5.57;;
65187;SDS011;51775;51.148;6.950;2022-12-18T09:01:09;27.75;;;5.53;;
65187;SDS011;51775;51.148;6.950;2022-12-18T09:03:36;31.70;;;5.32;;
65187;SDS011;51775;51.148;6.950;2022-12-18T09:06:02;17.67;;;5.10;;
65187;SDS011;51775;51.148;6.950;2022-12-18T09:08:28;17.00;;;4.63;;
65187;SDS011;51775;51.148;6.950;2022-12-18T09:10:54;15.18;;;4.38;;
65187;SDS011;51775;51.148;6.950;2022-12-18T09:13:19;17.85;;;4.07;;
65187;SDS011;51775;51.148;6.950;2022-12-18T09:15:46;13.73;;;4.35;;
65187;SDS011;51775;51.148;6.950;2022-12-18T09:18:16;13.65;;;4.55;;
65187;SDS011;51775;51.148;6.950;2022-12-18T09:20:42;12.10;;;4.03;;
65187;SDS011;51775;51.148;6.950;2022-12-18T09:23:08;14.57;;;4.32;;
65187;SDS011;51775;51.148;6.950;2022-12-18T09:25:34;14.18;;;4.28;;
65187;SDS011;51775;51.148;6.950;2022-12-18T09:28:03;10.35;;;4.00;;
65187;SDS011;51775;51.148;6.950;2022-12-18T09:30:31;9.50;;;3.67;;
65187;SDS011;51775;51.148;6.950;2022-12-18T09:32:56;12.32;;;4.00;;
65187;SDS011;51775;51.148;6.950;2022-12-18T09:35:21;10.63;;;3.90;;
65187;SDS011;51775;51.148;6.950;2022-12-18T09:37:47;8.80;;;3.50;;
65187;SDS011;51775;51.148;6.950;2022-12-18T09:40:19;11.15;;;3.35;;
65187;SDS011;51775;51.148;6.950;2022-12-18T09:42:48;11.98;;;3.65;;
65187;SDS011;51775;51.148;6.950;2022-12-18T09:45:17;10.52;;;3.30;;
65187;SDS011;51775;51.148;6.950;2022-12-18T09:47:43;8.48;;;3.33;;
65187;SDS011;51775;51.148;6.950;2022-12-18T09:50:24;9.00;;;3.22;;
65187;SDS011;51775;51.148;6.950;2022-12-18T09:52:55;10.52;;;3.28;;
65187;SDS011;51775;51.148;6.950;2022-12-18T09:57:56;9.43;;;2.72;;
65187;SDS011;51775;51.148;6.950;2022-12-18T10:00:29;8.25;;;2.92;;
65187;SDS011;51775;51.148;6.950;2022-12-18T10:02:59;5.97;;;2.30;;
65187;SDS011;51775;51.148;6.950;2022-12-18T10:05:36;6.85;;;2.60;;
65187;SDS011;51775;51.148;6.950;2022-12-18T10:08:05;8.70;;;2.85;;
65187;SDS011;51775;51.148;6.950;2022-12-18T10:10:49;7.85;;;2.60;;
65187;SDS011;51775;51.148;6.950;2022-12-18T10:15:54;9.03;;;2.53;;
65187;SDS011;51775;51.148;6.950;2022-12-18T10:21:03;6.93;;;2.55;;
65187;SDS011;51775;51.148;6.950;2022-12-18T10:26:27;5.07;;;2.20;;
65187;SDS011;51775;51.148;6.950;2022-12-18T10:28:52;4.22;;;1.95;;
65187;SDS011;51775;51.148;6.950;2022-12-18T10:31:20;4.85;;;1.90;;
65187;SDS011;51775;51.148;6.950;2022-12-18T10:33:47;4.93;;;2.30;;
65187;SDS011;51775;51.148;6.950;2022-12-18T10:36:13;4.07;;;2.13;;
65187;SDS011;51775;51.148;6.950;2022-12-18T10:38:39;4.85;;;1.95;;
65187;SDS011;51775;51.148;6.950;2022-12-18T10:51:16;4.07;;;2.10;;
65187;SDS011;51775;51.148;6.950;2022-12-18T10:54:04;6.18;;;2.28;;
65187;SDS011;51775;51.148;6.950;2022-12-18T10:56:33;4.70;;;1.88;;
65187;SDS011;51775;51.148;6.950;2022-12-18T10:59:02;3.72;;;1.95;;
65187;SDS011;51775;51.148;6.950;2022-12-18T11:01:30;3.90;;;2.05;;
65187;SDS011;51775;51.148;6.950;2022-12-18T11:04:19;4.53;;;2.05;;
65187;SDS011;51775;51.148;6.950;2022-12-18T11:06:52;3.88;;;1.77;;
65187;SDS011;51775;51.148;6.950;2022-12-18T11:09:44;4.40;;;2.13;;
65187;SDS011;51775;51.148;6.950;2022-12-18T11:12:25;4.13;;;1.92;;
65187;SDS011;51775;51.148;6.950;2022-12-18T11:14:53;3.78;;;2.00;;
65187;SDS011;51775;51.148;6.950;2022-12-18T11:19:59;5.00;;;1.80;;
65187;SDS011;51775;51.148;6.950;2022-12-18T11:22:29;3.53;;;2.00;;
65187;SDS011;51775;51.148;6.950;2022-12-18T11:27:40;3.03;;;1.77;;
65187;SDS011;51775;51.148;6.950;2022-12-18T11:30:09;3.88;;;1.88;;
65187;SDS011;51775;51.148;6.950;2022-12-18T11:32:39;3.25;;;1.80;;
65187;SDS011;51775;51.148;6.950;2022-12-18T11:35:13;4.05;;;1.90;;
65187;SDS011;51775;51.148;6.950;2022-12-18T11:37:46;2.53;;;1.65;;
65187;SDS011;51775;51.148;6.950;2022-12-18T11:40:16;3.90;;;1.92;;
65187;SDS011;51775;51.148;6.950;2022-12-18T11:42:54;4.10;;;1.95;;
65187;SDS011;51775;51.148;6.950;2022-12-18T11:45:29;4.13;;;2.10;;
65187;SDS011;51775;51.148;6.950;2022-12-18T11:48:05;4.05;;;1.88;;
65187;SDS011;51775;51.148;6.950;2022-12-18T11:50:56;3.42;;;1.83;;
65187;SDS011;51775;51.148;6.950;2022-12-18T11:53:22;3.67;;;1.67;;
65187;SDS011;51775;51.148;6.950;2022-12-18T11:55:53;3.78;;;1.90;;
65187;SDS011;51775;51.148;6.950;2022-12-18T12:04:08;3.47;;;2.00;;
65187;SDS011;51775;51.148;6.950;2022-12-18T12:12:55;2.60;;;1.52;;
65187;SDS011;51775;51.148;6.950;2022-12-18T12:21:06;2.90;;;1.58;;
65187;SDS011;51775;51.148;6.950;2022-12-18T12:32:22;3.33;;;1.90;;
65187;SDS011;51775;51.148;6.950;2022-12-18T12:40:20;2.45;;;1.42;;
65187;SDS011;51775;51.148;6.950;2022-12-18T12:42:52;3.42;;;1.70;;
65187;SDS011;51775;51.148;6.950;2022-12-18T12:45:23;3.10;;;1.77;;
65187;SDS011;51775;51.148;6.950;2022-12-18T12:47:55;3.70;;;1.65;;
65187;SDS011;51775;51.148;6.950;2022-12-18T12:50:23;3.33;;;1.80;;
65187;SDS011;51775;51.148;6.950;2022-12-18T12:52:51;3.33;;;1.55;;
65187;SDS011;51775;51.148;6.950;2022-12-18T12:55:23;4.20;;;1.80;;
65187;SDS011;51775;51.148;6.950;2022-12-18T13:00:23;3.13;;;1.83;;
65187;SDS011;51775;51.148;6.950;2022-12-18T13:02:59;3.35;;;1.80;;
65187;SDS011;51775;51.148;6.950;2022-12-18T13:08:11;3.30;;;1.73;;
65187;SDS011;51775;51.148;6.950;2022-12-18T13:10:46;3.38;;;1.77;;
65187;SDS011;51775;51.148;6.950;2022-12-18T13:13:12;3.00;;;1.80;;
65187;SDS011;51775;51.148;6.950;2022-12-18T13:15:40;3.03;;;1.85;;
65187;SDS011;51775;51.148;6.950;2022-12-18T13:18:25;3.78;;;2.00;;
65187;SDS011;51775;51.148;6.950;2022-12-18T13:20:51;3.13;;;1.65;;
65187;SDS011;51775;51.148;6.950;2022-12-18T13:29:04;2.77;;;1.63;;
65187;SDS011;51775;51.148;6.950;2022-12-18T13:31:10;2.92;;;1.60;;
65187;SDS011;51775;51.148;6.950;2022-12-18T13:33:37;2.25;;;1.70;;
65187;SDS011;51775;51.148;6.950;2022-12-18T13:41:39;2.90;;;1.80;;
65187;SDS011;51775;51.148;6.950;2022-12-18T13:44:25;3.20;;;1.70;;
65187;SDS011;51775;51.148;6.950;2022-12-18T13:47:03;3.17;;;2.00;;
65187;SDS011;51775;51.148;6.950;2022-12-18T13:52:16;3.58;;;1.67;;
65187;SDS011;51775;51.148;6.950;2022-12-18T13:57:28;3.03;;;1.90;;
65187;SDS011;51775;51.148;6.950;2022-12-18T13:59:58;3.00;;;1.63;;
65187;SDS011;51775;51.148;6.950;2022-12-18T14:05:21;3.42;;;1.70;;
65187;SDS011;51775;51.148;6.950;2022-12-18T14:07:51;2.72;;;1.73;;
65187;SDS011;51775;51.148;6.950;2022-12-18T14:10:17;3.00;;;1.73;;
65187;SDS011;51775;51.148;6.950;2022-12-18T14:12:49;3.05;;;1.60;;
65187;SDS011;51775;51.148;6.950;2022-12-18T14:18:36;2.88;;;1.70;;
65187;SDS011;51775;51.148;6.950;2022-12-18T14:20:52;3.00;;;1.90;;
65187;SDS011;51775;51.148;6.950;2022-12-18T14:25:57;3.15;;;1.92;;
65187;SDS011;51775;51.148;6.950;2022-12-18T14:28:22;3.22;;;1.95;;
65187;SDS011;51775;51.148;6.950;2022-12-18T14:30:48;2.90;;;1.70;;
65187;SDS011;51775;51.148;6.950;2022-12-18T14:33:15;3.10;;;1.92;;
65187;SDS011;51775;51.148;6.950;2022-12-18T14:35:58;3.17;;;2.00;;
65187;SDS011;51775;51.148;6.950;2022-12-18T14:45:58;2.90;;;1.75;;
65187;SDS011;51775;51.148;6.950;2022-12-18T14:48:37;3.65;;;1.80;;
65187;SDS011;51775;51.148;6.950;2022-12-18T14:51:06;2.95;;;1.75;;
65187;SDS011;51775;51.148;6.950;2022-12-18T14:53:46;3.15;;;1.90;;
65187;SDS011;51775;51.148;6.950;2022-12-18T14:58:48;3.10;;;1.80;;
65187;SDS011;51775;51.148;6.950;2022-12-18T15:01:19;2.75;;;1.65;;
65187;SDS011;51775;51.148;6.950;2022-12-18T15:03:47;2.83;;;1.73;;
65187;SDS011;51775;51.148;6.950;2022-12-18T15:06:24;2.92;;;1.80;;
65187;SDS011;51775;51.148;6.950;2022-12-18T15:08:52;3.08;;;1.80;;
65187;SDS011;51775;51.148;6.950;2022-12-18T15:11:44;2.72;;;1.48;;
65187;SDS011;51775;51.148;6.950;2022-12-18T15:16:56;2.97;;;1.85;;
65187;SDS011;51775;51.148;6.950;2022-12-18T15:19:28;3.22;;;1.77;;
65187;SDS011;51775;51.148;6.950;2022-12-18T15:24:55;3.33;;;2.10;;
65187;SDS011;51775;51.148;6.950;2022-12-18T15:27:24;2.97;;;1.65;;
65187;SDS011;51775;51.148;6.950;2022-12-18T15:32:26;2.90;;;1.83;;
65187;SDS011;51775;51.148;6.950;2022-12-18T15:35:01;3.40;;;1.90;;
65187;SDS011;51775;51.148;6.950;2022-12-18T15:37:39;2.75;;;1.67;;
65187;SDS011;51775;51.148;6.950;2022-12-18T15:40:05;3.35;;;2.03;;
65187;SDS011;51775;51.148;6.950;2022-12-18T15:42:31;3.42;;;1.83;;
65187;SDS011;51775;51.148;6.950;2022-12-18T15:44:56;3.35;;;2.00;;
65187;SDS011;51775;51.148;6.950;2022-12-18T15:47:21;2.78;;;1.80;;
65187;SDS011;51775;51.148;6.950;2022-12-18T15:49:47;3.83;;;1.90;;
65187;SDS011;51775;51.148;6.950;2022-12-18T15:52:12;2.90;;;1.70;;
65187;SDS011;51775;51.148;6.950;2022-12-18T15:54:38;3.72;;;1.90;;
65187;SDS011;51775;51.148;6.950;2022-12-18T15:57:04;3.40;;;1.90;;
65187;SDS011;51775;51.148;6.950;2022-12-18T15:59:29;2.80;;;1.90;;
65187;SDS011;51775;51.148;6.950;2022-12-18T16:01:54;2.60;;;1.73;;
65187;SDS011;51775;51.148;6.950;2022-12-18T16:04:20;3.25;;;2.10;;
65187;SDS011;51775;51.148;6.950;2022-12-18T16:06:49;3.30;;;1.70;;
65187;SDS011;51775;51.148;6.950;2022-12-18T16:09:15;2.90;;;1.90;;
65187;SDS011;51775;51.148;6.950;2022-12-18T16:11:41;3.10;;;1.88;;
65187;SDS011;51775;51.148;6.950;2022-12-18T16:14:24;3.20;;;1.88;;
65187;SDS011;51775;51.148;6.950;2022-12-18T16:16:52;2.97;;;1.90;;
65187;SDS011;51775;51.148;6.950;2022-12-18T16:19:20;3.75;;;1.88;;
65187;SDS011;51775;51.148;6.950;2022-12-18T16:21:46;3.60;;;2.00;;
65187;SDS011;51775;51.148;6.950;2022-12-18T16:24:14;2.83;;;1.85;;
65187;SDS011;51775;51.148;6.950;2022-12-18T16:26:41;3.33;;;2.00;;
65187;SDS011;51775;51.148;6.950;2022-12-18T16:29:06;3.65;;;2.15;;
65187;SDS011;51775;51.148;6.950;2022-12-18T16:31:31;3.20;;;1.90;;
65187;SDS011;51775;51.148;6.950;2022-12-18T16:36:56;2.58;;;1.73;;
65187;SDS011;51775;51.148;6.950;2022-12-18T16:39:24;3.28;;;1.98;;
65187;SDS011;51775;51.148;6.950;2022-12-18T16:41:50;3.20;;;2.05;;
65187;SDS011;51775;51.148;6.950;2022-12-18T16:44:15;2.70;;;1.77;;
65187;SDS011;51775;51.148;6.950;2022-12-18T16:46:41;3.50;;;2.10;;
65187;SDS011;51775;51.148;6.950;2022-12-18T16:49:07;3.10;;;1.80;;
65187;SDS011;51775;51.148;6.950;2022-12-18T16:51:33;3.22;;;2.03;;
65187;SDS011;51775;51.148;6.950;2022-12-18T16:53:59;3.38;;;1.92;;
65187;SDS011;51775;51.148;6.950;2022-12-18T16:56:24;3.40;;;2.08;;
65187;SDS011;51775;51.148;6.950;2022-12-18T16:58:53;3.45;;;2.10;;
65187;SDS011;51775;51.148;6.950;2022-12-18T17:01:21;3.30;;;1.85;;
65187;SDS011;51775;51.148;6.950;2022-12-18T17:03:54;3.28;;;1.90;;
65187;SDS011;51775;51.148;6.950;2022-12-18T17:06:24;2.88;;;1.83;;
65187;SDS011;51775;51.148;6.950;2022-12-18T17:08:54;2.63;;;1.80;;